sensor_id;sensor_type;location;lat;lon;timestamp;pressure;altitude;pressure_sealevel;temperature;humidity
18697;BME280;22617;43.690;27.956;2023-03-03T00:00:15;99247.63;;;4.95;83.61
18697;BME280;22617;43.690;27.956;2023-03-03T00:05:19;99234.72;;;4.95;83.16
18697;BME280;22617;43.690;27.956;2023-03-03T00:10:24;99234.13;;;5.07;83.57
18697;BME280;22617;43.690;27.956;2023-03-03T00:15:29;99221.25;;;5.08;83.00
18697;BME280;22617;43.690;27.956;2023-03-03T00:20:36;99228.03;;;5.05;82.73
18697;BME280;22617;43.690;27.956;2023-03-03T00:25:42;99215.94;;;5.02;82.39
18697;BME280;22617;43.690;27.956;2023-03-03T00:30:47;99216.00;;;5.05;82.99
18697;BME280;22617;43.690;27.956;2023-03-03T00:35:51;99204.69;;;4.99;82.78
18697;BME280;22617;43.690;27.956;2023-03-03T00:40:56;99198.69;;;5.01;82.81
18697;BME280;22617;43.690;27.956;2023-03-03T00:46:00;99202.94;;;4.99;82.60
18697;BME280;22617;43.690;27.956;2023-03-03T00:51:16;99192.56;;;4.96;82.34
18697;BME280;22617;43.690;27.956;2023-03-03T00:56:25;99190.81;;;4.95;82.84
18697;BME280;22617;43.690;27.956;2023-03-03T01:01:29;99185.72;;;4.98;83.05
18697;BME280;22617;43.690;27.956;2023-03-03T01:06:32;99177.22;;;5.04;83.07
18697;BME280;22617;43.690;27.956;2023-03-03T01:11:37;99174.44;;;4.93;82.56
18697;BME280;22617;43.690;27.956;2023-03-03T01:16:41;99161.56;;;4.96;82.85
18697;BME280;22617;43.690;27.956;2023-03-03T01:21:45;99162.41;;;4.95;82.59
18697;BME280;22617;43.690;27.956;2023-03-03T01:26:50;99159.00;;;4.96;82.88
18697;BME280;22617;43.690;27.956;2023-03-03T01:31:53;99157.19;;;4.92;82.83
18697;BME280;22617;43.690;27.956;2023-03-03T01:36:57;99152.16;;;4.98;82.64
18697;BME280;22617;43.690;27.956;2023-03-03T01:42:03;99147.00;;;4.98;82.79
18697;BME280;22617;43.690;27.956;2023-03-03T01:47:10;99151.09;;;4.90;82.77
18697;BME280;22617;43.690;27.956;2023-03-03T01:52:20;99149.34;;;4.88;82.56
18697;BME280;22617;43.690;27.956;2023-03-03T01:57:32;99137.41;;;4.93;82.56
18697;BME280;22617;43.690;27.956;2023-03-03T02:02:38;99128.56;;;4.81;82.07
18697;BME280;22617;43.690;27.956;2023-03-03T02:07:44;99124.28;;;4.82;82.29
18697;BME280;22617;43.690;27.956;2023-03-03T02:12:51;99116.38;;;4.76;82.75
18697;BME280;22617;43.690;27.956;2023-03-03T02:17:58;99116.38;;;4.76;83.05
18697;BME280;22617;43.690;27.956;2023-03-03T02:23:06;99115.56;;;4.77;83.10
18697;BME280;22617;43.690;27.956;2023-03-03T02:28:12;99118.28;;;4.84;83.17
18697;BME280;22617;43.690;27.956;2023-03-03T02:33:16;99110.47;;;4.81;83.01
18697;BME280;22617;43.690;27.956;2023-03-03T02:38:23;99105.50;;;4.89;82.65
18697;BME280;22617;43.690;27.956;2023-03-03T02:43:34;99104.44;;;4.81;82.42
18697;BME280;22617;43.690;27.956;2023-03-03T02:48:39;99109.47;;;4.75;82.52
18697;BME280;22617;43.690;27.956;2023-03-03T02:53:43;99101.72;;;4.75;82.76
18697;BME280;22617;43.690;27.956;2023-03-03T02:58:49;99113.88;;;4.79;83.51
18697;BME280;22617;43.690;27.956;2023-03-03T03:03:53;99116.38;;;4.76;82.95
18697;BME280;22617;43.690;27.956;2023-03-03T03:08:57;99116.28;;;4.71;83.03
18697;BME280;22617;43.690;27.956;2023-03-03T03:14:05;99115.38;;;4.68;83.21
18697;BME280;22617;43.690;27.956;2023-03-03T03:19:09;99116.16;;;4.65;83.56
18697;BME280;22617;43.690;27.956;2023-03-03T03:24:14;99113.53;;;4.62;83.17
18697;BME280;22617;43.690;27.956;2023-03-03T03:29:27;99097.31;;;4.68;84.14
18697;BME280;22617;43.690;27.956;2023-03-03T03:34:30;99091.16;;;4.63;83.51
18697;BME280;22617;43.690;27.956;2023-03-03T03:39:34;99092.03;;;4.63;83.50
18697;BME280;22617;43.690;27.956;2023-03-03T03:44:40;99098.09;;;4.64;84.15
18697;BME280;22617;43.690;27.956;2023-03-03T03:49:43;99097.84;;;4.53;83.72
18697;BME280;22617;43.690;27.956;2023-03-03T03:54:47;99091.66;;;4.47;84.22
18697;BME280;22617;43.690;27.956;2023-03-03T03:59:53;99097.69;;;4.46;84.02
18697;BME280;22617;43.690;27.956;2023-03-03T04:04:57;99092.53;;;4.46;84.84
18697;BME280;22617;43.690;27.956;2023-03-03T04:10:00;99090.16;;;4.55;85.55
18697;BME280;22617;43.690;27.956;2023-03-03T04:15:08;99085.88;;;4.55;84.91
18697;BME280;22617;43.690;27.956;2023-03-03T04:20:14;99080.72;;;4.57;85.04
18697;BME280;22617;43.690;27.956;2023-03-03T04:25:19;99083.44;;;4.63;85.29
18697;BME280;22617;43.690;27.956;2023-03-03T04:30:26;99086.84;;;4.62;84.89
18697;BME280;22617;43.690;27.956;2023-03-03T04:35:31;99083.38;;;4.60;85.38
18697;BME280;22617;43.690;27.956;2023-03-03T04:40:36;99079.88;;;4.58;85.27
18697;BME280;22617;43.690;27.956;2023-03-03T04:45:44;99076.41;;;4.57;85.57
18697;BME280;22617;43.690;27.956;2023-03-03T04:50:48;99089.28;;;4.56;85.63
18697;BME280;22617;43.690;27.956;2023-03-03T04:55:53;99085.94;;;4.60;85.23
18697;BME280;22617;43.690;27.956;2023-03-03T05:00:58;99084.53;;;4.74;85.26
18697;BME280;22617;43.690;27.956;2023-03-03T05:06:05;99084.44;;;4.71;85.15
18697;BME280;22617;43.690;27.956;2023-03-03T05:11:09;99088.91;;;4.78;85.11
18697;BME280;22617;43.690;27.956;2023-03-03T05:16:14;99094.84;;;4.74;84.90
18697;BME280;22617;43.690;27.956;2023-03-03T05:21:18;99089.69;;;4.74;85.55
18697;BME280;22617;43.690;27.956;2023-03-03T05:26:21;99089.59;;;4.71;84.71
18697;BME280;22617;43.690;27.956;2023-03-03T05:31:26;99098.25;;;4.73;85.18
18697;BME280;22617;43.690;27.956;2023-03-03T05:36:29;99093.16;;;4.76;85.20
18697;BME280;22617;43.690;27.956;2023-03-03T05:41:33;99088.94;;;4.79;85.43
18697;BME280;22617;43.690;27.956;2023-03-03T05:46:39;99085.50;;;4.79;84.80
18697;BME280;22617;43.690;27.956;2023-03-03T05:51:43;99099.38;;;4.84;85.23
18697;BME280;22617;43.690;27.956;2023-03-03T05:56:47;99103.78;;;4.91;85.46
18697;BME280;22617;43.690;27.956;2023-03-03T06:01:51;99095.25;;;4.94;84.91
18697;BME280;22617;43.690;27.956;2023-03-03T06:06:55;99092.16;;;5.11;85.16
18697;BME280;22617;43.690;27.956;2023-03-03T06:11:58;99094.06;;;5.21;84.74
18697;BME280;22617;43.690;27.956;2023-03-03T06:17:04;99095.81;;;5.24;83.71
18697;BME280;22617;43.690;27.956;2023-03-03T06:22:08;99092.34;;;5.23;83.21
18697;BME280;22617;43.690;27.956;2023-03-03T06:27:11;99096.72;;;5.26;82.59
18697;BME280;22617;43.690;27.956;2023-03-03T06:32:16;99094.28;;;5.34;82.08
18697;BME280;22617;43.690;27.956;2023-03-03T06:37:20;99097.75;;;5.36;81.54
18697;BME280;22617;43.690;27.956;2023-03-03T06:42:24;99100.22;;;5.30;81.31
18697;BME280;22617;43.690;27.956;2023-03-03T06:47:29;99102.97;;;5.39;81.30
18697;BME280;22617;43.690;27.956;2023-03-03T06:52:32;99109.84;;;5.37;81.18
18697;BME280;22617;43.690;27.956;2023-03-03T06:57:36;99104.72;;;5.40;81.12
18697;BME280;22617;43.690;27.956;2023-03-03T07:02:41;99110.78;;;5.40;80.18
18697;BME280;22617;43.690;27.956;2023-03-03T07:07:44;99112.44;;;5.37;80.58
18697;BME280;22617;43.690;27.956;2023-03-03T07:12:48;99095.16;;;5.34;80.93
18697;BME280;22617;43.690;27.956;2023-03-03T07:17:55;99098.81;;;5.47;80.62
18697;BME280;22617;43.690;27.956;2023-03-03T07:23:02;99084.25;;;5.50;80.42
18697;BME280;22617;43.690;27.956;2023-03-03T07:28:24;99086.91;;;5.55;80.27
18697;BME280;22617;43.690;27.956;2023-03-03T07:33:34;99085.34;;;5.66;80.91
18697;BME280;22617;43.690;27.956;2023-03-03T07:38:41;99085.44;;;5.69;80.62
18697;BME280;22617;43.690;27.956;2023-03-03T07:43:49;99083.19;;;5.90;79.92
18697;BME280;22617;43.690;27.956;2023-03-03T07:48:57;99081.22;;;5.76;78.98
18697;BME280;22617;43.690;27.956;2023-03-03T07:54:16;99080.44;;;5.80;79.28
18697;BME280;22617;43.690;27.956;2023-03-03T07:59:24;99076.22;;;5.86;77.78
18697;BME280;22617;43.690;27.956;2023-03-03T08:04:38;99069.44;;;5.91;77.30
18697;BME280;22617;43.690;27.956;2023-03-03T08:09:46;99065.16;;;5.93;77.54
18697;BME280;22617;43.690;27.956;2023-03-03T08:14:53;99064.38;;;6.00;76.74
18697;BME280;22617;43.690;27.956;2023-03-03T08:19:58;99060.63;;;5.80;77.57
18697;BME280;22617;43.690;27.956;2023-03-03T08:25:02;99054.94;;;6.02;77.73
18697;BME280;22617;43.690;27.956;2023-03-03T08:30:06;99050.81;;;6.15;76.57
18697;BME280;22617;43.690;27.956;2023-03-03T08:35:11;99045.94;;;6.36;76.30
18697;BME280;22617;43.690;27.956;2023-03-03T08:40:14;99054.50;;;6.31;75.35
18697;BME280;22617;43.690;27.956;2023-03-03T08:45:18;99052.22;;;5.93;74.53
18697;BME280;22617;43.690;27.956;2023-03-03T08:50:23;99041.25;;;6.09;75.82
18697;BME280;22617;43.690;27.956;2023-03-03T08:55:26;99048.47;;;6.33;74.71
18697;BME280;22617;43.690;27.956;2023-03-03T09:00:30;99049.56;;;6.49;74.31
18697;BME280;22617;43.690;27.956;2023-03-03T09:05:37;99040.72;;;7.04;73.96
18697;BME280;22617;43.690;27.956;2023-03-03T09:10:40;99041.69;;;7.15;74.46
18697;BME280;22617;43.690;27.956;2023-03-03T09:15:44;99037.53;;;7.31;73.30
18697;BME280;22617;43.690;27.956;2023-03-03T09:20:50;99047.63;;;7.05;72.63
18697;BME280;22617;43.690;27.956;2023-03-03T09:25:54;99045.59;;;7.64;72.34
18697;BME280;22617;43.690;27.956;2023-03-03T09:30:59;99048.09;;;7.52;70.39
18697;BME280;22617;43.690;27.956;2023-03-03T09:36:16;99037.72;;;7.52;68.74
18697;BME280;22617;43.690;27.956;2023-03-03T09:47:03;99026.66;;;7.71;68.40
18697;BME280;22617;43.690;27.956;2023-03-03T09:52:23;99020.13;;;8.31;67.44
18697;BME280;22617;43.690;27.956;2023-03-03T09:57:37;99004.38;;;8.07;68.03
18697;BME280;22617;43.690;27.956;2023-03-03T10:02:59;98993.09;;;7.99;66.06
18697;BME280;22617;43.690;27.956;2023-03-03T10:08:20;98986.06;;;7.82;65.28
18697;BME280;22617;43.690;27.956;2023-03-03T10:13:44;98980.16;;;8.03;65.71
18697;BME280;22617;43.690;27.956;2023-03-03T10:18:57;98965.47;;;8.08;65.25
18697;BME280;22617;43.690;27.956;2023-03-03T10:24:14;98958.56;;;8.10;64.46
18697;BME280;22617;43.690;27.956;2023-03-03T10:29:30;98953.31;;;8.01;66.18
18697;BME280;22617;43.690;27.956;2023-03-03T10:34:52;98954.13;;;7.91;68.25
18697;BME280;22617;43.690;27.956;2023-03-03T10:40:10;98945.63;;;8.21;66.08
18697;BME280;22617;43.690;27.956;2023-03-03T10:45:38;98946.28;;;7.79;66.19
18697;BME280;22617;43.690;27.956;2023-03-03T10:50:50;98933.22;;;7.68;66.81
18697;BME280;22617;43.690;27.956;2023-03-03T10:56:09;98921.25;;;7.88;66.82
18697;BME280;22617;43.690;27.956;2023-03-03T11:01:22;98905.78;;;8.13;66.75
18697;BME280;22617;43.690;27.956;2023-03-03T11:06:35;98895.47;;;8.28;66.08
18697;BME280;22617;43.690;27.956;2023-03-03T11:11:46;98896.28;;;8.18;67.06
18697;BME280;22617;43.690;27.956;2023-03-03T11:17:00;98897.25;;;8.41;66.08
18697;BME280;22617;43.690;27.956;2023-03-03T11:22:16;98885.25;;;8.92;64.81
18697;BME280;22617;43.690;27.956;2023-03-03T11:27:37;98880.03;;;9.43;63.74
18697;BME280;22617;43.690;27.956;2023-03-03T11:32:45;98879.13;;;9.47;62.21
18697;BME280;22617;43.690;27.956;2023-03-03T11:38:07;98874.81;;;9.43;62.96
18697;BME280;22617;43.690;27.956;2023-03-03T11:43:19;98862.56;;;9.80;62.98
18697;BME280;22617;43.690;27.956;2023-03-03T11:48:43;98851.22;;;10.01;61.55
18697;BME280;22617;43.690;27.956;2023-03-03T11:54:00;98845.16;;;10.02;61.28
18697;BME280;22617;43.690;27.956;2023-03-03T11:59:33;98839.00;;;10.20;61.64
18697;BME280;22617;43.690;27.956;2023-03-03T12:04:42;98840.03;;;9.78;62.67
18697;BME280;22617;43.690;27.956;2023-03-03T12:09:55;98840.81;;;9.95;60.79
18697;BME280;22617;43.690;27.956;2023-03-03T12:15:12;98828.66;;;10.01;60.66
18697;BME280;22617;43.690;27.956;2023-03-03T12:20:24;98837.22;;;10.29;60.31
18697;BME280;22617;43.690;27.956;2023-03-03T12:25:37;98833.88;;;9.94;60.71
18697;BME280;22617;43.690;27.956;2023-03-03T12:31:00;98834.00;;;9.73;62.40
18697;BME280;22617;43.690;27.956;2023-03-03T12:36:15;98828.81;;;9.63;61.37
18697;BME280;22617;43.690;27.956;2023-03-03T12:41:31;98826.19;;;9.73;61.77
18697;BME280;22617;43.690;27.956;2023-03-03T12:46:44;98818.28;;;9.91;61.30
18697;BME280;22617;43.690;27.956;2023-03-03T12:52:02;98827.03;;;9.70;62.37
18697;BME280;22617;43.690;27.956;2023-03-03T12:57:18;98823.56;;;9.73;61.23
18697;BME280;22617;43.690;27.956;2023-03-03T13:02:47;98816.63;;;9.78;61.75
18697;BME280;22617;43.690;27.956;2023-03-03T13:08:14;98814.78;;;9.93;61.47
18697;BME280;22617;43.690;27.956;2023-03-03T13:13:24;98810.41;;;10.03;61.49
18697;BME280;22617;43.690;27.956;2023-03-03T13:18:43;98814.00;;;9.78;61.38
18697;BME280;22617;43.690;27.956;2023-03-03T13:23:54;98812.16;;;10.01;60.87
18697;BME280;22617;43.690;27.956;2023-03-03T13:29:10;98807.78;;;10.11;61.57
18697;BME280;22617;43.690;27.956;2023-03-03T13:34:24;98805.22;;;10.00;61.27
18697;BME280;22617;43.690;27.956;2023-03-03T13:39:38;98791.41;;;9.92;61.28
18697;BME280;22617;43.690;27.956;2023-03-03T13:44:45;98795.84;;;9.59;62.40
18697;BME280;22617;43.690;27.956;2023-03-03T13:50:02;98791.53;;;9.57;63.17
18697;BME280;22617;43.690;27.956;2023-03-03T13:55:16;98788.91;;;9.60;62.23
18697;BME280;22617;43.690;27.956;2023-03-03T14:00:43;98791.53;;;9.52;62.94
18697;BME280;22617;43.690;27.956;2023-03-03T14:05:56;98788.97;;;9.49;63.13
18697;BME280;22617;43.690;27.956;2023-03-03T14:11:09;98793.31;;;9.43;62.93
18697;BME280;22617;43.690;27.956;2023-03-03T14:16:16;98781.19;;;9.37;63.45
18697;BME280;22617;43.690;27.956;2023-03-03T14:21:27;98785.56;;;9.29;64.06
18697;BME280;22617;43.690;27.956;2023-03-03T14:26:45;98780.38;;;9.03;64.46
18697;BME280;22617;43.690;27.956;2023-03-03T14:31:49;98788.16;;;9.17;65.01
18697;BME280;22617;43.690;27.956;2023-03-03T14:37:07;98793.41;;;8.88;65.50
18697;BME280;22617;43.690;27.956;2023-03-03T14:42:34;98786.50;;;8.92;65.72
18697;BME280;22617;43.690;27.956;2023-03-03T14:47:43;98787.34;;;8.86;66.31
18697;BME280;22617;43.690;27.956;2023-03-03T14:53:06;98795.13;;;8.85;66.33
18697;BME280;22617;43.690;27.956;2023-03-03T14:58:26;98789.06;;;8.78;66.89
18697;BME280;22617;43.690;27.956;2023-03-03T15:03:30;98796.00;;;8.68;67.90
18697;BME280;22617;43.690;27.956;2023-03-03T15:08:36;98793.41;;;8.59;67.84
18697;BME280;22617;43.690;27.956;2023-03-03T15:13:41;98802.94;;;8.57;68.23
18697;BME280;22617;43.690;27.956;2023-03-03T15:19:19;98802.09;;;8.58;68.31
18697;BME280;22617;43.690;27.956;2023-03-03T15:24:33;98803.78;;;8.41;68.58
18697;BME280;22617;43.690;27.956;2023-03-03T15:29:53;98804.66;;;8.42;68.48
18697;BME280;22617;43.690;27.956;2023-03-03T15:35:04;98801.16;;;8.35;68.63
18697;BME280;22617;43.690;27.956;2023-03-03T15:40:20;98792.53;;;8.33;68.49
18697;BME280;22617;43.690;27.956;2023-03-03T15:45:30;98802.00;;;8.23;69.11
18697;BME280;22617;43.690;27.956;2023-03-03T15:50:43;98800.25;;;8.24;68.87
18697;BME280;22617;43.690;27.956;2023-03-03T15:56:01;98805.47;;;8.24;69.27
18697;BME280;22617;43.690;27.956;2023-03-03T16:01:13;98808.03;;;8.21;69.04
18697;BME280;22617;43.690;27.956;2023-03-03T16:06:25;98813.22;;;8.21;69.44
18697;BME280;22617;43.690;27.956;2023-03-03T16:11:41;98814.09;;;8.20;69.65
18697;BME280;22617;43.690;27.956;2023-03-03T16:16:49;98814.06;;;8.15;70.76
18697;BME280;22617;43.690;27.956;2023-03-03T16:22:29;98821.00;;;8.15;70.93
18697;BME280;22617;43.690;27.956;2023-03-03T16:27:42;98823.50;;;7.84;71.78
18697;BME280;22617;43.690;27.956;2023-03-03T16:32:50;98825.19;;;7.75;72.15
18697;BME280;22617;43.690;27.956;2023-03-03T16:37:57;98827.78;;;7.75;72.43
18697;BME280;22617;43.690;27.956;2023-03-03T16:43:10;98843.16;;;7.40;72.79
18697;BME280;22617;43.690;27.956;2023-03-03T16:48:21;98832.72;;;7.26;73.43
18697;BME280;22617;43.690;27.956;2023-03-03T16:53:42;98850.03;;;7.29;73.27
18697;BME280;22617;43.690;27.956;2023-03-03T16:59:02;98855.13;;;7.20;73.44
18697;BME280;22617;43.690;27.956;2023-03-03T17:04:14;98844.69;;;7.11;73.84
18697;BME280;22617;43.690;27.956;2023-03-03T17:09:42;98847.34;;;7.17;73.25
18697;BME280;22617;43.690;27.956;2023-03-03T17:15:02;98850.75;;;7.13;73.53
18697;BME280;22617;43.690;27.956;2023-03-03T17:20:19;98846.34;;;7.01;73.33
18697;BME280;22617;43.690;27.956;2023-03-03T17:25:34;98846.31;;;6.96;73.44
18697;BME280;22617;43.690;27.956;2023-03-03T17:30:47;98856.63;;;6.89;73.98
18697;BME280;22617;43.690;27.956;2023-03-03T17:36:06;98859.94;;;6.73;75.00
18697;BME280;22617;43.690;27.956;2023-03-03T17:41:20;98863.38;;;6.70;75.41
18697;BME280;22617;43.690;27.956;2023-03-03T17:46:33;98873.59;;;6.58;75.79
18697;BME280;22617;43.690;27.956;2023-03-03T17:52:06;98863.22;;;6.55;76.45
18697;BME280;22617;43.690;27.956;2023-03-03T17:57:25;98872.59;;;6.44;76.87
18697;BME280;22617;43.690;27.956;2023-03-03T18:03:11;98872.47;;;6.32;78.01
18697;BME280;22617;43.690;27.956;2023-03-03T18:08:33;98873.41;;;6.38;78.42
18697;BME280;22617;43.690;27.956;2023-03-03T18:14:05;98881.72;;;6.11;79.18
18697;BME280;22617;43.690;27.956;2023-03-03T18:19:30;98884.25;;;6.04;80.25
18697;BME280;22617;43.690;27.956;2023-03-03T18:24:53;98886.91;;;6.11;80.80
18697;BME280;22617;43.690;27.956;2023-03-03T18:35:52;98898.19;;;6.17;81.20
18697;BME280;22617;43.690;27.956;2023-03-03T18:41:11;98899.78;;;6.07;81.75
18697;BME280;22617;43.690;27.956;2023-03-03T18:46:52;98911.78;;;6.00;83.25
18697;BME280;22617;43.690;27.956;2023-03-03T18:52:17;98919.41;;;5.91;84.87
18697;BME280;22617;43.690;27.956;2023-03-03T18:57:21;98921.81;;;5.79;86.87
18697;BME280;22617;43.690;27.956;2023-03-03T19:02:33;98933.91;;;5.80;88.10
18697;BME280;22617;43.690;27.956;2023-03-03T19:07:49;98938.09;;;5.72;88.98
18697;BME280;22617;43.690;27.956;2023-03-03T19:12:54;98928.59;;;5.69;89.53
18697;BME280;22617;43.690;27.956;2023-03-03T19:17:59;98925.97;;;5.68;90.63
18697;BME280;22617;43.690;27.956;2023-03-03T19:23:10;98931.34;;;5.83;90.92
18697;BME280;22617;43.690;27.956;2023-03-03T19:28:31;98930.44;;;5.81;90.77
18697;BME280;22617;43.690;27.956;2023-03-03T19:33:49;98932.22;;;5.84;90.37
18697;BME280;22617;43.690;27.956;2023-03-03T19:39:20;98939.25;;;5.92;90.00
18697;BME280;22617;43.690;27.956;2023-03-03T19:44:38;98945.16;;;5.85;90.25
18697;BME280;22617;43.690;27.956;2023-03-03T19:49:56;98945.25;;;5.88;91.01
18697;BME280;22617;43.690;27.956;2023-03-03T19:55:23;98948.91;;;6.05;90.96
18697;BME280;22617;43.690;27.956;2023-03-03T20:00:36;98949.69;;;5.98;90.76
18697;BME280;22617;43.690;27.956;2023-03-03T20:05:47;98952.06;;;5.85;91.20
18697;BME280;22617;43.690;27.956;2023-03-03T20:11:01;98947.97;;;6.00;91.98
18697;BME280;22617;43.690;27.956;2023-03-03T20:16:16;98951.47;;;6.02;91.99
18697;BME280;22617;43.690;27.956;2023-03-03T20:21:30;98944.47;;;5.95;92.26
18697;BME280;22617;43.690;27.956;2023-03-03T20:26:44;98934.09;;;5.92;92.55
18697;BME280;22617;43.690;27.956;2023-03-03T20:31:54;98937.56;;;5.93;93.07
18697;BME280;22617;43.690;27.956;2023-03-03T20:37:09;98945.13;;;5.82;93.33
18697;BME280;22617;43.690;27.956;2023-03-03T20:42:25;98942.63;;;5.87;93.63
18697;BME280;22617;43.690;27.956;2023-03-03T20:47:44;98942.69;;;5.90;94.29
18697;BME280;22617;43.690;27.956;2023-03-03T20:52:59;98941.88;;;5.95;94.42
18697;BME280;22617;43.690;27.956;2023-03-03T20:58:14;98943.59;;;5.93;93.98
18697;BME280;22617;43.690;27.956;2023-03-03T21:03:28;98939.25;;;5.92;94.33
18697;BME280;22617;43.690;27.956;2023-03-03T21:08:42;98945.28;;;5.91;94.32
18697;BME280;22617;43.690;27.956;2023-03-03T21:13:49;98947.00;;;5.89;94.24
18697;BME280;22617;43.690;27.956;2023-03-03T21:18:55;98947.94;;;5.96;94.36
18697;BME280;22617;43.690;27.956;2023-03-03T21:23:59;98941.88;;;5.95;94.56
18697;BME280;22617;43.690;27.956;2023-03-03T21:29:04;98947.06;;;5.95;94.54
18697;BME280;22617;43.690;27.956;2023-03-03T21:34:17;98940.22;;;5.99;94.58
18697;BME280;22617;43.690;27.956;2023-03-03T21:39:27;98934.16;;;5.97;94.64
18697;BME280;22617;43.690;27.956;2023-03-03T21:44:35;98938.53;;;6.02;95.04
18697;BME280;22617;43.690;27.956;2023-03-03T21:49:39;98940.34;;;6.08;94.94
18697;BME280;22617;43.690;27.956;2023-03-03T21:54:44;98943.75;;;6.05;94.97
18697;BME280;22617;43.690;27.956;2023-03-03T21:59:50;98942.06;;;6.07;94.76
18697;BME280;22617;43.690;27.956;2023-03-03T22:04:54;98936.88;;;6.07;95.15
18697;BME280;22617;43.690;27.956;2023-03-03T22:09:57;98936.75;;;6.00;94.97
18697;BME280;22617;43.690;27.956;2023-03-03T22:15:02;98932.53;;;6.03;95.38
18697;BME280;22617;43.690;27.956;2023-03-03T22:20:08;98938.53;;;6.02;95.57
18697;BME280;22617;43.690;27.956;2023-03-03T22:25:11;98933.38;;;6.02;95.95
18697;BME280;22617;43.690;27.956;2023-03-03T22:30:17;98929.94;;;6.03;95.62
18697;BME280;22617;43.690;27.956;2023-03-03T22:35:20;98942.81;;;5.99;94.92
18697;BME280;22617;43.690;27.956;2023-03-03T22:40:24;98933.31;;;5.98;95.38
18697;BME280;22617;43.690;27.956;2023-03-03T22:45:29;98939.31;;;5.97;94.94
18697;BME280;22617;43.690;27.956;2023-03-03T22:50:32;98938.28;;;5.84;94.73
18697;BME280;22617;43.690;27.956;2023-03-03T22:55:40;98927.22;;;5.93;94.66
18697;BME280;22617;43.690;27.956;2023-03-03T23:00:45;98928.00;;;5.90;94.19
18697;BME280;22617;43.690;27.956;2023-03-03T23:05:48;98925.47;;;5.92;94.22
18697;BME280;22617;43.690;27.956;2023-03-03T23:10:53;98928.03;;;5.89;93.92
18697;BME280;22617;43.690;27.956;2023-03-03T23:15:58;98937.56;;;5.93;94.18
18697;BME280;22617;43.690;27.956;2023-03-03T23:21:03;98939.97;;;5.85;94.26
18697;BME280;22617;43.690;27.956;2023-03-03T23:26:07;98945.13;;;5.82;94.03
18697;BME280;22617;43.690;27.956;2023-03-03T23:31:12;98940.91;;;5.87;94.24
18697;BME280;22617;43.690;27.956;2023-03-03T23:36:15;98932.16;;;5.81;94.07
18697;BME280;22617;43.690;27.956;2023-03-03T23:41:19;98923.44;;;5.72;94.19
18697;BME280;22617;43.690;27.956;2023-03-03T23:46:24;98933.91;;;5.80;94.34
18697;BME280;22617;43.690;27.956;2023-03-03T23:51:27;98939.72;;;5.67;94.34
18697;BME280;22617;43.690;27.956;2023-03-03T23:56:31;98942.34;;;5.68;94.43
